sensor_id;sensor_type;location;lat;lon;timestamp;temperature;humidity
21498;DHT22;10910;50.932;0.246;2024-02-21T00:02:19;9.00;100.00
21498;DHT22;10910;50.932;0.246;2024-02-21T00:04:45;9.00;100.00
21498;DHT22;10910;50.932;0.246;2024-02-21T00:07:10;9.00;100.00
21498;DHT22;10910;50.932;0.246;2024-02-21T00:09:36;8.90;100.00
21498;DHT22;10910;50.932;0.246;2024-02-21T00:12:01;8.80;100.00
21498;DHT22;10910;50.932;0.246;2024-02-21T00:14:28;8.90;100.00
21498;DHT22;10910;50.932;0.246;2024-02-21T00:16:54;8.90;100.00
21498;DHT22;10910;50.932;0.246;2024-02-21T00:19:19;9.00;100.00
21498;DHT22;10910;50.932;0.246;2024-02-21T00:21:45;8.90;100.00
21498;DHT22;10910;50.932;0.246;2024-02-21T00:24:11;8.90;100.00
21498;DHT22;10910;50.932;0.246;2024-02-21T00:26:36;8.80;100.00
21498;DHT22;10910;50.932;0.246;2024-02-21T00:29:02;8.90;100.00
21498;DHT22;10910;50.932;0.246;2024-02-21T00:31:27;8.90;100.00
21498;DHT22;10910;50.932;0.246;2024-02-21T00:33:53;8.90;100.00
21498;DHT22;10910;50.932;0.246;2024-02-21T00:36:19;8.90;100.00
21498;DHT22;10910;50.932;0.246;2024-02-21T00:38:44;8.90;100.00
21498;DHT22;10910;50.932;0.246;2024-02-21T00:41:10;8.90;100.00
21498;DHT22;10910;50.932;0.246;2024-02-21T00:43:35;8.80;100.00
21498;DHT22;10910;50.932;0.246;2024-02-21T00:46:01;8.90;100.00
21498;DHT22;10910;50.932;0.246;2024-02-21T00:48:27;8.90;100.00
21498;DHT22;10910;50.932;0.246;2024-02-21T00:50:52;8.90;100.00
21498;DHT22;10910;50.932;0.246;2024-02-21T00:53:18;8.90;100.00
21498;DHT22;10910;50.932;0.246;2024-02-21T00:55:43;8.90;100.00
21498;DHT22;10910;50.932;0.246;2024-02-21T00:58:09;8.90;100.00
21498;DHT22;10910;50.932;0.246;2024-02-21T01:00:36;8.90;100.00
21498;DHT22;10910;50.932;0.246;2024-02-21T01:03:01;8.90;100.00
21498;DHT22;10910;50.932;0.246;2024-02-21T01:05:28;8.90;100.00
21498;DHT22;10910;50.932;0.246;2024-02-21T01:07:54;8.90;100.00
21498;DHT22;10910;50.932;0.246;2024-02-21T01:10:20;8.90;100.00
21498;DHT22;10910;50.932;0.246;2024-02-21T01:12:46;8.80;100.00
21498;DHT22;10910;50.932;0.246;2024-02-21T01:15:11;8.70;100.00
21498;DHT22;10910;50.932;0.246;2024-02-21T01:17:37;8.70;100.00
21498;DHT22;10910;50.932;0.246;2024-02-21T01:20:03;8.80;100.00
21498;DHT22;10910;50.932;0.246;2024-02-21T01:22:31;8.70;100.00
21498;DHT22;10910;50.932;0.246;2024-02-21T01:24:56;8.70;100.00
21498;DHT22;10910;50.932;0.246;2024-02-21T01:27:22;8.70;100.00
21498;DHT22;10910;50.932;0.246;2024-02-21T01:29:47;8.70;100.00
21498;DHT22;10910;50.932;0.246;2024-02-21T01:32:15;8.70;100.00
21498;DHT22;10910;50.932;0.246;2024-02-21T01:34:41;8.70;100.00
21498;DHT22;10910;50.932;0.246;2024-02-21T01:37:07;8.80;100.00
21498;DHT22;10910;50.932;0.246;2024-02-21T01:39:33;8.70;100.00
21498;DHT22;10910;50.932;0.246;2024-02-21T01:41:59;8.80;100.00
21498;DHT22;10910;50.932;0.246;2024-02-21T01:44:25;8.70;100.00
21498;DHT22;10910;50.932;0.246;2024-02-21T01:46:52;8.70;100.00
21498;DHT22;10910;50.932;0.246;2024-02-21T01:49:19;8.70;100.00
21498;DHT22;10910;50.932;0.246;2024-02-21T01:51:44;8.70;100.00
21498;DHT22;10910;50.932;0.246;2024-02-21T01:54:10;8.70;100.00
21498;DHT22;10910;50.932;0.246;2024-02-21T01:56:38;8.80;100.00
21498;DHT22;10910;50.932;0.246;2024-02-21T01:59:04;8.80;100.00
21498;DHT22;10910;50.932;0.246;2024-02-21T02:01:30;8.80;100.00
21498;DHT22;10910;50.932;0.246;2024-02-21T02:03:56;8.80;100.00
21498;DHT22;10910;50.932;0.246;2024-02-21T02:06:22;8.80;100.00
21498;DHT22;10910;50.932;0.246;2024-02-21T02:08:48;8.70;100.00
21498;DHT22;10910;50.932;0.246;2024-02-21T02:11:14;8.60;100.00
21498;DHT22;10910;50.932;0.246;2024-02-21T02:13:40;8.60;100.00
21498;DHT22;10910;50.932;0.246;2024-02-21T02:16:06;8.60;100.00
21498;DHT22;10910;50.932;0.246;2024-02-21T02:18:31;8.60;100.00
21498;DHT22;10910;50.932;0.246;2024-02-21T02:20:57;8.60;100.00
21498;DHT22;10910;50.932;0.246;2024-02-21T02:23:30;8.60;100.00
21498;DHT22;10910;50.932;0.246;2024-02-21T02:26:00;8.60;100.00
21498;DHT22;10910;50.932;0.246;2024-02-21T02:28:28;8.60;100.00
21498;DHT22;10910;50.932;0.246;2024-02-21T02:30:54;8.60;100.00
21498;DHT22;10910;50.932;0.246;2024-02-21T02:33:20;8.60;100.00
21498;DHT22;10910;50.932;0.246;2024-02-21T02:36:01;8.60;100.00
21498;DHT22;10910;50.932;0.246;2024-02-21T02:38:27;8.60;100.00
21498;DHT22;10910;50.932;0.246;2024-02-21T02:40:52;8.50;100.00
21498;DHT22;10910;50.932;0.246;2024-02-21T02:43:18;8.50;100.00
21498;DHT22;10910;50.932;0.246;2024-02-21T02:45:44;8.50;100.00
21498;DHT22;10910;50.932;0.246;2024-02-21T02:48:09;8.60;100.00
21498;DHT22;10910;50.932;0.246;2024-02-21T02:50:35;8.60;100.00
21498;DHT22;10910;50.932;0.246;2024-02-21T02:53:00;8.60;100.00
21498;DHT22;10910;50.932;0.246;2024-02-21T02:55:26;8.50;100.00
21498;DHT22;10910;50.932;0.246;2024-02-21T02:57:52;8.50;100.00
21498;DHT22;10910;50.932;0.246;2024-02-21T03:00:17;8.60;99.90
21498;DHT22;10910;50.932;0.246;2024-02-21T03:02:45;8.50;100.00
21498;DHT22;10910;50.932;0.246;2024-02-21T03:05:19;8.60;100.00
21498;DHT22;10910;50.932;0.246;2024-02-21T03:07:45;8.60;100.00
21498;DHT22;10910;50.932;0.246;2024-02-21T03:10:12;8.70;100.00
21498;DHT22;10910;50.932;0.246;2024-02-21T03:12:38;8.70;100.00
21498;DHT22;10910;50.932;0.246;2024-02-21T03:15:04;8.70;100.00
21498;DHT22;10910;50.932;0.246;2024-02-21T03:17:31;8.70;100.00
21498;DHT22;10910;50.932;0.246;2024-02-21T03:19:57;8.70;100.00
21498;DHT22;10910;50.932;0.246;2024-02-21T03:22:23;8.60;100.00
21498;DHT22;10910;50.932;0.246;2024-02-21T03:24:48;8.60;100.00
21498;DHT22;10910;50.932;0.246;2024-02-21T03:27:14;8.60;100.00
21498;DHT22;10910;50.932;0.246;2024-02-21T03:29:40;8.60;100.00
21498;DHT22;10910;50.932;0.246;2024-02-21T03:32:05;8.70;100.00
21498;DHT22;10910;50.932;0.246;2024-02-21T03:34:31;8.70;100.00
21498;DHT22;10910;50.932;0.246;2024-02-21T03:36:56;8.70;100.00
21498;DHT22;10910;50.932;0.246;2024-02-21T03:39:22;8.70;100.00
21498;DHT22;10910;50.932;0.246;2024-02-21T03:41:48;8.70;100.00
21498;DHT22;10910;50.932;0.246;2024-02-21T03:44:14;8.80;100.00
21498;DHT22;10910;50.932;0.246;2024-02-21T03:46:41;8.80;100.00
21498;DHT22;10910;50.932;0.246;2024-02-21T03:49:06;8.70;100.00
21498;DHT22;10910;50.932;0.246;2024-02-21T03:51:32;8.60;100.00
21498;DHT22;10910;50.932;0.246;2024-02-21T03:53:58;8.70;100.00
21498;DHT22;10910;50.932;0.246;2024-02-21T03:56:23;8.70;100.00
21498;DHT22;10910;50.932;0.246;2024-02-21T03:58:50;8.70;100.00
21498;DHT22;10910;50.932;0.246;2024-02-21T04:01:16;8.60;100.00
21498;DHT22;10910;50.932;0.246;2024-02-21T04:03:44;8.60;100.00
21498;DHT22;10910;50.932;0.246;2024-02-21T04:06:09;8.80;100.00
21498;DHT22;10910;50.932;0.246;2024-02-21T04:08:35;8.70;100.00
21498;DHT22;10910;50.932;0.246;2024-02-21T04:11:01;8.70;100.00
21498;DHT22;10910;50.932;0.246;2024-02-21T04:13:27;8.70;100.00
21498;DHT22;10910;50.932;0.246;2024-02-21T04:15:52;8.70;100.00
21498;DHT22;10910;50.932;0.246;2024-02-21T04:18:18;8.90;100.00
21498;DHT22;10910;50.932;0.246;2024-02-21T04:20:44;8.90;100.00
21498;DHT22;10910;50.932;0.246;2024-02-21T04:23:09;8.80;100.00
21498;DHT22;10910;50.932;0.246;2024-02-21T04:25:36;8.70;100.00
21498;DHT22;10910;50.932;0.246;2024-02-21T04:28:01;8.80;100.00
21498;DHT22;10910;50.932;0.246;2024-02-21T04:30:27;8.70;100.00
21498;DHT22;10910;50.932;0.246;2024-02-21T04:32:53;8.70;100.00
21498;DHT22;10910;50.932;0.246;2024-02-21T04:35:18;8.60;100.00
21498;DHT22;10910;50.932;0.246;2024-02-21T04:37:44;8.60;100.00
21498;DHT22;10910;50.932;0.246;2024-02-21T04:40:10;8.70;100.00
21498;DHT22;10910;50.932;0.246;2024-02-21T04:42:36;8.60;100.00
21498;DHT22;10910;50.932;0.246;2024-02-21T04:45:02;8.50;100.00
21498;DHT22;10910;50.932;0.246;2024-02-21T04:47:27;8.50;100.00
21498;DHT22;10910;50.932;0.246;2024-02-21T04:49:53;8.50;100.00
21498;DHT22;10910;50.932;0.246;2024-02-21T04:52:19;8.50;100.00
21498;DHT22;10910;50.932;0.246;2024-02-21T04:54:45;8.40;100.00
21498;DHT22;10910;50.932;0.246;2024-02-21T04:57:10;8.40;100.00
21498;DHT22;10910;50.932;0.246;2024-02-21T04:59:36;8.40;100.00
21498;DHT22;10910;50.932;0.246;2024-02-21T05:02:02;8.30;100.00
21498;DHT22;10910;50.932;0.246;2024-02-21T05:04:28;8.30;100.00
21498;DHT22;10910;50.932;0.246;2024-02-21T05:06:54;8.40;100.00
21498;DHT22;10910;50.932;0.246;2024-02-21T05:09:20;8.30;100.00
21498;DHT22;10910;50.932;0.246;2024-02-21T05:11:45;8.40;100.00
21498;DHT22;10910;50.932;0.246;2024-02-21T05:14:11;8.40;100.00
21498;DHT22;10910;50.932;0.246;2024-02-21T05:16:38;8.40;100.00
21498;DHT22;10910;50.932;0.246;2024-02-21T05:19:05;8.40;100.00
21498;DHT22;10910;50.932;0.246;2024-02-21T05:21:30;8.30;100.00
21498;DHT22;10910;50.932;0.246;2024-02-21T05:23:56;8.40;100.00
21498;DHT22;10910;50.932;0.246;2024-02-21T05:26:23;8.50;100.00
21498;DHT22;10910;50.932;0.246;2024-02-21T05:28:48;8.50;100.00
21498;DHT22;10910;50.932;0.246;2024-02-21T05:31:16;8.40;100.00
21498;DHT22;10910;50.932;0.246;2024-02-21T05:33:42;8.40;100.00
21498;DHT22;10910;50.932;0.246;2024-02-21T05:36:08;8.30;100.00
21498;DHT22;10910;50.932;0.246;2024-02-21T05:38:34;8.40;100.00
21498;DHT22;10910;50.932;0.246;2024-02-21T05:41:01;8.40;100.00
21498;DHT22;10910;50.932;0.246;2024-02-21T05:43:26;8.30;100.00
21498;DHT22;10910;50.932;0.246;2024-02-21T05:45:52;8.30;100.00
21498;DHT22;10910;50.932;0.246;2024-02-21T05:48:17;8.20;100.00
21498;DHT22;10910;50.932;0.246;2024-02-21T05:50:43;8.20;100.00
21498;DHT22;10910;50.932;0.246;2024-02-21T05:53:09;8.30;100.00
21498;DHT22;10910;50.932;0.246;2024-02-21T05:55:35;8.30;100.00
21498;DHT22;10910;50.932;0.246;2024-02-21T05:58:01;8.30;100.00
21498;DHT22;10910;50.932;0.246;2024-02-21T06:00:28;8.20;100.00
21498;DHT22;10910;50.932;0.246;2024-02-21T06:02:53;8.20;100.00
21498;DHT22;10910;50.932;0.246;2024-02-21T06:05:19;8.30;100.00
21498;DHT22;10910;50.932;0.246;2024-02-21T06:07:45;8.30;100.00
21498;DHT22;10910;50.932;0.246;2024-02-21T06:10:11;8.20;100.00
21498;DHT22;10910;50.932;0.246;2024-02-21T06:12:36;8.20;100.00
21498;DHT22;10910;50.932;0.246;2024-02-21T06:15:02;8.20;100.00
21498;DHT22;10910;50.932;0.246;2024-02-21T06:17:28;8.30;100.00
21498;DHT22;10910;50.932;0.246;2024-02-21T06:19:54;8.40;100.00
21498;DHT22;10910;50.932;0.246;2024-02-21T06:22:19;8.30;100.00
21498;DHT22;10910;50.932;0.246;2024-02-21T06:24:45;8.40;100.00
21498;DHT22;10910;50.932;0.246;2024-02-21T06:27:11;8.30;100.00
21498;DHT22;10910;50.932;0.246;2024-02-21T06:29:37;8.20;100.00
21498;DHT22;10910;50.932;0.246;2024-02-21T06:32:03;8.30;100.00
21498;DHT22;10910;50.932;0.246;2024-02-21T06:34:29;8.30;100.00
21498;DHT22;10910;50.932;0.246;2024-02-21T06:36:54;8.40;100.00
21498;DHT22;10910;50.932;0.246;2024-02-21T06:39:20;8.40;100.00
21498;DHT22;10910;50.932;0.246;2024-02-21T06:41:47;8.40;100.00
21498;DHT22;10910;50.932;0.246;2024-02-21T06:44:18;8.50;100.00
21498;DHT22;10910;50.932;0.246;2024-02-21T06:46:44;8.50;100.00
21498;DHT22;10910;50.932;0.246;2024-02-21T06:49:10;8.60;100.00
21498;DHT22;10910;50.932;0.246;2024-02-21T06:51:41;8.50;100.00
21498;DHT22;10910;50.932;0.246;2024-02-21T06:54:08;8.40;100.00
21498;DHT22;10910;50.932;0.246;2024-02-21T06:56:33;8.40;100.00
21498;DHT22;10910;50.932;0.246;2024-02-21T06:58:59;8.40;100.00
21498;DHT22;10910;50.932;0.246;2024-02-21T07:01:24;8.40;100.00
21498;DHT22;10910;50.932;0.246;2024-02-21T07:03:50;8.40;100.00
21498;DHT22;10910;50.932;0.246;2024-02-21T07:06:16;8.40;100.00
21498;DHT22;10910;50.932;0.246;2024-02-21T07:08:42;8.40;100.00
21498;DHT22;10910;50.932;0.246;2024-02-21T07:11:07;8.40;100.00
21498;DHT22;10910;50.932;0.246;2024-02-21T07:13:33;8.60;100.00
21498;DHT22;10910;50.932;0.246;2024-02-21T07:15:59;8.60;100.00
21498;DHT22;10910;50.932;0.246;2024-02-21T07:18:25;8.50;100.00
21498;DHT22;10910;50.932;0.246;2024-02-21T07:20:53;8.70;100.00
21498;DHT22;10910;50.932;0.246;2024-02-21T07:23:20;8.70;100.00
21498;DHT22;10910;50.932;0.246;2024-02-21T07:25:46;8.50;100.00
21498;DHT22;10910;50.932;0.246;2024-02-21T07:28:12;8.50;100.00
21498;DHT22;10910;50.932;0.246;2024-02-21T07:30:39;8.60;100.00
21498;DHT22;10910;50.932;0.246;2024-02-21T07:33:04;8.50;100.00
21498;DHT22;10910;50.932;0.246;2024-02-21T07:35:30;8.60;100.00
21498;DHT22;10910;50.932;0.246;2024-02-21T07:37:56;8.60;100.00
21498;DHT22;10910;50.932;0.246;2024-02-21T07:40:21;8.50;100.00
21498;DHT22;10910;50.932;0.246;2024-02-21T07:42:47;8.50;100.00
21498;DHT22;10910;50.932;0.246;2024-02-21T07:45:13;8.50;100.00
21498;DHT22;10910;50.932;0.246;2024-02-21T07:47:38;8.60;100.00
21498;DHT22;10910;50.932;0.246;2024-02-21T07:50:04;8.70;100.00
21498;DHT22;10910;50.932;0.246;2024-02-21T07:52:30;8.60;100.00
21498;DHT22;10910;50.932;0.246;2024-02-21T07:54:56;8.60;100.00
21498;DHT22;10910;50.932;0.246;2024-02-21T07:57:21;8.60;100.00
21498;DHT22;10910;50.932;0.246;2024-02-21T07:59:47;8.60;100.00
21498;DHT22;10910;50.932;0.246;2024-02-21T08:02:14;8.60;100.00
21498;DHT22;10910;50.932;0.246;2024-02-21T08:04:40;8.70;100.00
21498;DHT22;10910;50.932;0.246;2024-02-21T08:07:05;8.70;100.00
21498;DHT22;10910;50.932;0.246;2024-02-21T08:09:31;8.70;100.00
21498;DHT22;10910;50.932;0.246;2024-02-21T08:11:57;8.70;100.00
21498;DHT22;10910;50.932;0.246;2024-02-21T08:14:23;8.70;100.00
21498;DHT22;10910;50.932;0.246;2024-02-21T08:16:50;8.70;100.00
21498;DHT22;10910;50.932;0.246;2024-02-21T08:19:18;8.60;100.00
21498;DHT22;10910;50.932;0.246;2024-02-21T08:21:44;8.70;100.00
21498;DHT22;10910;50.932;0.246;2024-02-21T08:24:13;8.70;100.00
21498;DHT22;10910;50.932;0.246;2024-02-21T08:26:40;8.60;100.00
21498;DHT22;10910;50.932;0.246;2024-02-21T08:29:06;8.60;100.00
21498;DHT22;10910;50.932;0.246;2024-02-21T08:31:32;8.70;100.00
21498;DHT22;10910;50.932;0.246;2024-02-21T08:33:58;8.70;100.00
21498;DHT22;10910;50.932;0.246;2024-02-21T08:36:30;8.80;100.00
21498;DHT22;10910;50.932;0.246;2024-02-21T08:38:57;8.80;100.00
21498;DHT22;10910;50.932;0.246;2024-02-21T08:41:26;8.70;100.00
21498;DHT22;10910;50.932;0.246;2024-02-21T08:43:52;8.60;100.00
21498;DHT22;10910;50.932;0.246;2024-02-21T08:46:20;8.70;100.00
21498;DHT22;10910;50.932;0.246;2024-02-21T08:48:46;8.70;100.00
21498;DHT22;10910;50.932;0.246;2024-02-21T08:51:12;8.70;100.00
21498;DHT22;10910;50.932;0.246;2024-02-21T08:53:38;8.80;100.00
21498;DHT22;10910;50.932;0.246;2024-02-21T08:56:04;8.80;100.00
21498;DHT22;10910;50.932;0.246;2024-02-21T08:58:30;8.80;100.00
21498;DHT22;10910;50.932;0.246;2024-02-21T09:00:56;8.80;100.00
21498;DHT22;10910;50.932;0.246;2024-02-21T09:03:22;8.70;100.00
21498;DHT22;10910;50.932;0.246;2024-02-21T09:05:48;8.90;100.00
21498;DHT22;10910;50.932;0.246;2024-02-21T09:08:14;8.80;100.00
21498;DHT22;10910;50.932;0.246;2024-02-21T09:10:40;8.90;100.00
21498;DHT22;10910;50.932;0.246;2024-02-21T09:13:05;8.80;100.00
21498;DHT22;10910;50.932;0.246;2024-02-21T09:15:33;8.80;100.00
21498;DHT22;10910;50.932;0.246;2024-02-21T09:17:58;8.80;100.00
21498;DHT22;10910;50.932;0.246;2024-02-21T09:20:24;8.90;100.00
21498;DHT22;10910;50.932;0.246;2024-02-21T09:22:49;8.90;100.00
21498;DHT22;10910;50.932;0.246;2024-02-21T09:25:15;8.90;100.00
21498;DHT22;10910;50.932;0.246;2024-02-21T09:30:06;9.10;100.00
21498;DHT22;10910;50.932;0.246;2024-02-21T09:32:32;9.20;100.00
21498;DHT22;10910;50.932;0.246;2024-02-21T09:34:58;9.20;100.00
21498;DHT22;10910;50.932;0.246;2024-02-21T09:37:24;9.10;100.00
21498;DHT22;10910;50.932;0.246;2024-02-21T09:39:49;9.10;100.00
21498;DHT22;10910;50.932;0.246;2024-02-21T09:42:20;9.10;100.00
21498;DHT22;10910;50.932;0.246;2024-02-21T09:44:46;9.20;100.00
21498;DHT22;10910;50.932;0.246;2024-02-21T09:47:22;9.20;100.00
21498;DHT22;10910;50.932;0.246;2024-02-21T09:49:49;9.20;100.00
21498;DHT22;10910;50.932;0.246;2024-02-21T09:52:17;9.10;100.00
21498;DHT22;10910;50.932;0.246;2024-02-21T09:54:43;9.10;100.00
21498;DHT22;10910;50.932;0.246;2024-02-21T09:57:10;9.00;100.00
21498;DHT22;10910;50.932;0.246;2024-02-21T09:59:37;9.00;100.00
21498;DHT22;10910;50.932;0.246;2024-02-21T10:02:03;9.10;100.00
21498;DHT22;10910;50.932;0.246;2024-02-21T10:04:30;9.10;100.00
21498;DHT22;10910;50.932;0.246;2024-02-21T10:06:56;9.20;100.00
21498;DHT22;10910;50.932;0.246;2024-02-21T10:09:25;9.10;100.00
21498;DHT22;10910;50.932;0.246;2024-02-21T10:12:07;9.00;100.00
21498;DHT22;10910;50.932;0.246;2024-02-21T10:14:33;9.00;100.00
21498;DHT22;10910;50.932;0.246;2024-02-21T10:16:58;9.00;100.00
21498;DHT22;10910;50.932;0.246;2024-02-21T10:19:24;9.00;100.00
21498;DHT22;10910;50.932;0.246;2024-02-21T10:24:29;8.90;100.00
21498;DHT22;10910;50.932;0.246;2024-02-21T10:27:01;9.00;100.00
21498;DHT22;10910;50.932;0.246;2024-02-21T10:29:26;9.00;100.00
21498;DHT22;10910;50.932;0.246;2024-02-21T10:31:52;8.90;100.00
21498;DHT22;10910;50.932;0.246;2024-02-21T10:34:18;9.00;100.00
21498;DHT22;10910;50.932;0.246;2024-02-21T10:36:43;9.00;100.00
21498;DHT22;10910;50.932;0.246;2024-02-21T10:39:09;8.90;100.00
21498;DHT22;10910;50.932;0.246;2024-02-21T10:41:36;8.90;100.00
21498;DHT22;10910;50.932;0.246;2024-02-21T10:44:05;8.80;100.00
21498;DHT22;10910;50.932;0.246;2024-02-21T10:46:35;8.80;100.00
21498;DHT22;10910;50.932;0.246;2024-02-21T10:49:25;8.80;100.00
21498;DHT22;10910;50.932;0.246;2024-02-21T10:51:54;8.90;100.00
21498;DHT22;10910;50.932;0.246;2024-02-21T10:54:53;8.90;100.00
21498;DHT22;10910;50.932;0.246;2024-02-21T10:57:22;8.90;100.00
21498;DHT22;10910;50.932;0.246;2024-02-21T10:59:49;9.00;100.00
21498;DHT22;10910;50.932;0.246;2024-02-21T11:02:15;8.80;100.00
21498;DHT22;10910;50.932;0.246;2024-02-21T11:04:42;8.90;100.00
21498;DHT22;10910;50.932;0.246;2024-02-21T11:07:08;9.00;100.00
21498;DHT22;10910;50.932;0.246;2024-02-21T11:09:34;8.90;100.00
21498;DHT22;10910;50.932;0.246;2024-02-21T11:12:03;8.90;100.00
21498;DHT22;10910;50.932;0.246;2024-02-21T11:14:29;9.00;100.00
21498;DHT22;10910;50.932;0.246;2024-02-21T11:16:58;9.00;100.00
21498;DHT22;10910;50.932;0.246;2024-02-21T11:19:28;9.00;100.00
21498;DHT22;10910;50.932;0.246;2024-02-21T11:21:55;8.90;100.00
21498;DHT22;10910;50.932;0.246;2024-02-21T11:27:33;9.00;100.00
21498;DHT22;10910;50.932;0.246;2024-02-21T11:29:58;8.90;100.00
21498;DHT22;10910;50.932;0.246;2024-02-21T11:32:25;8.90;100.00
21498;DHT22;10910;50.932;0.246;2024-02-21T11:34:54;9.00;100.00
21498;DHT22;10910;50.932;0.246;2024-02-21T11:37:20;9.00;100.00
21498;DHT22;10910;50.932;0.246;2024-02-21T11:39:46;8.90;100.00
21498;DHT22;10910;50.932;0.246;2024-02-21T11:42:11;9.00;100.00
21498;DHT22;10910;50.932;0.246;2024-02-21T11:44:38;8.90;100.00
21498;DHT22;10910;50.932;0.246;2024-02-21T11:47:05;8.90;100.00
21498;DHT22;10910;50.932;0.246;2024-02-21T11:49:35;9.10;100.00
21498;DHT22;10910;50.932;0.246;2024-02-21T11:52:02;9.20;100.00
21498;DHT22;10910;50.932;0.246;2024-02-21T11:54:31;9.10;100.00
21498;DHT22;10910;50.932;0.246;2024-02-21T11:56:57;9.10;100.00
21498;DHT22;10910;50.932;0.246;2024-02-21T11:59:22;9.10;100.00
21498;DHT22;10910;50.932;0.246;2024-02-21T12:01:49;9.00;100.00
21498;DHT22;10910;50.932;0.246;2024-02-21T12:04:15;9.00;100.00
21498;DHT22;10910;50.932;0.246;2024-02-21T12:06:44;9.10;100.00
21498;DHT22;10910;50.932;0.246;2024-02-21T12:09:13;9.10;100.00
21498;DHT22;10910;50.932;0.246;2024-02-21T12:11:39;9.20;100.00
21498;DHT22;10910;50.932;0.246;2024-02-21T12:14:04;9.20;100.00
21498;DHT22;10910;50.932;0.246;2024-02-21T12:16:32;9.30;100.00
21498;DHT22;10910;50.932;0.246;2024-02-21T12:19:01;9.20;100.00
21498;DHT22;10910;50.932;0.246;2024-02-21T12:21:30;9.30;100.00
21498;DHT22;10910;50.932;0.246;2024-02-21T12:23:56;9.30;100.00
21498;DHT22;10910;50.932;0.246;2024-02-21T12:26:22;9.20;100.00
21498;DHT22;10910;50.932;0.246;2024-02-21T12:28:48;9.30;100.00
21498;DHT22;10910;50.932;0.246;2024-02-21T12:31:14;9.30;100.00
21498;DHT22;10910;50.932;0.246;2024-02-21T12:33:42;9.30;100.00
21498;DHT22;10910;50.932;0.246;2024-02-21T12:36:08;9.30;100.00
21498;DHT22;10910;50.932;0.246;2024-02-21T12:38:35;9.20;100.00
21498;DHT22;10910;50.932;0.246;2024-02-21T12:41:01;9.30;100.00
21498;DHT22;10910;50.932;0.246;2024-02-21T12:43:27;9.20;100.00
21498;DHT22;10910;50.932;0.246;2024-02-21T12:45:52;9.20;100.00
21498;DHT22;10910;50.932;0.246;2024-02-21T12:48:18;9.30;100.00
21498;DHT22;10910;50.932;0.246;2024-02-21T12:50:51;9.30;100.00
21498;DHT22;10910;50.932;0.246;2024-02-21T12:53:18;9.20;100.00
21498;DHT22;10910;50.932;0.246;2024-02-21T12:55:45;9.30;100.00
21498;DHT22;10910;50.932;0.246;2024-02-21T12:58:11;9.30;100.00
21498;DHT22;10910;50.932;0.246;2024-02-21T13:00:38;9.40;100.00
21498;DHT22;10910;50.932;0.246;2024-02-21T13:03:04;9.40;100.00
21498;DHT22;10910;50.932;0.246;2024-02-21T13:05:30;9.40;100.00
21498;DHT22;10910;50.932;0.246;2024-02-21T13:07:58;9.40;100.00
21498;DHT22;10910;50.932;0.246;2024-02-21T13:10:24;9.30;100.00
21498;DHT22;10910;50.932;0.246;2024-02-21T13:12:49;9.30;100.00
21498;DHT22;10910;50.932;0.246;2024-02-21T13:15:15;9.30;100.00
21498;DHT22;10910;50.932;0.246;2024-02-21T13:17:43;9.40;100.00
21498;DHT22;10910;50.932;0.246;2024-02-21T13:20:10;9.40;100.00
21498;DHT22;10910;50.932;0.246;2024-02-21T13:22:36;9.40;100.00
21498;DHT22;10910;50.932;0.246;2024-02-21T13:25:02;9.40;100.00
21498;DHT22;10910;50.932;0.246;2024-02-21T13:27:28;9.40;100.00
21498;DHT22;10910;50.932;0.246;2024-02-21T13:29:54;9.40;100.00
21498;DHT22;10910;50.932;0.246;2024-02-21T13:32:20;9.40;100.00
21498;DHT22;10910;50.932;0.246;2024-02-21T13:34:45;9.50;100.00
21498;DHT22;10910;50.932;0.246;2024-02-21T13:37:11;9.50;100.00
21498;DHT22;10910;50.932;0.246;2024-02-21T13:39:37;9.50;100.00
21498;DHT22;10910;50.932;0.246;2024-02-21T13:42:03;9.50;100.00
21498;DHT22;10910;50.932;0.246;2024-02-21T13:44:31;9.50;100.00
21498;DHT22;10910;50.932;0.246;2024-02-21T13:46:57;9.50;100.00
21498;DHT22;10910;50.932;0.246;2024-02-21T13:49:23;9.50;100.00
21498;DHT22;10910;50.932;0.246;2024-02-21T13:51:49;9.50;100.00
21498;DHT22;10910;50.932;0.246;2024-02-21T13:54:14;9.50;100.00
21498;DHT22;10910;50.932;0.246;2024-02-21T13:56:42;9.60;100.00
21498;DHT22;10910;50.932;0.246;2024-02-21T13:59:08;9.60;100.00
21498;DHT22;10910;50.932;0.246;2024-02-21T14:01:34;9.60;100.00
21498;DHT22;10910;50.932;0.246;2024-02-21T14:04:01;9.60;100.00
21498;DHT22;10910;50.932;0.246;2024-02-21T14:06:27;9.60;100.00
21498;DHT22;10910;50.932;0.246;2024-02-21T14:08:53;9.60;100.00
21498;DHT22;10910;50.932;0.246;2024-02-21T14:11:18;9.60;100.00
21498;DHT22;10910;50.932;0.246;2024-02-21T14:13:44;9.60;100.00
21498;DHT22;10910;50.932;0.246;2024-02-21T14:16:10;9.60;100.00
21498;DHT22;10910;50.932;0.246;2024-02-21T14:18:40;9.60;100.00
21498;DHT22;10910;50.932;0.246;2024-02-21T14:21:09;9.50;100.00
21498;DHT22;10910;50.932;0.246;2024-02-21T14:23:38;9.50;100.00
21498;DHT22;10910;50.932;0.246;2024-02-21T14:26:04;9.50;100.00
21498;DHT22;10910;50.932;0.246;2024-02-21T14:28:30;9.50;100.00
21498;DHT22;10910;50.932;0.246;2024-02-21T14:30:56;9.50;100.00
21498;DHT22;10910;50.932;0.246;2024-02-21T14:33:28;9.40;100.00
21498;DHT22;10910;50.932;0.246;2024-02-21T14:35:55;9.40;100.00
21498;DHT22;10910;50.932;0.246;2024-02-21T14:38:20;9.40;100.00
21498;DHT22;10910;50.932;0.246;2024-02-21T14:40:46;9.40;100.00
21498;DHT22;10910;50.932;0.246;2024-02-21T14:43:12;9.30;100.00
21498;DHT22;10910;50.932;0.246;2024-02-21T14:45:37;9.40;100.00
21498;DHT22;10910;50.932;0.246;2024-02-21T14:48:04;9.40;100.00
21498;DHT22;10910;50.932;0.246;2024-02-21T14:50:30;9.40;100.00
21498;DHT22;10910;50.932;0.246;2024-02-21T14:52:56;9.40;100.00
21498;DHT22;10910;50.932;0.246;2024-02-21T14:55:21;9.30;100.00
21498;DHT22;10910;50.932;0.246;2024-02-21T14:57:48;9.40;100.00
21498;DHT22;10910;50.932;0.246;2024-02-21T15:00:14;9.40;100.00
21498;DHT22;10910;50.932;0.246;2024-02-21T15:02:40;9.40;100.00
21498;DHT22;10910;50.932;0.246;2024-02-21T15:05:06;9.30;100.00
21498;DHT22;10910;50.932;0.246;2024-02-21T15:07:32;9.40;100.00
21498;DHT22;10910;50.932;0.246;2024-02-21T15:09:58;9.40;100.00
21498;DHT22;10910;50.932;0.246;2024-02-21T15:12:23;9.40;100.00
21498;DHT22;10910;50.932;0.246;2024-02-21T15:14:52;9.40;100.00
21498;DHT22;10910;50.932;0.246;2024-02-21T15:17:18;9.30;100.00
21498;DHT22;10910;50.932;0.246;2024-02-21T15:19:44;9.30;100.00
21498;DHT22;10910;50.932;0.246;2024-02-21T15:22:10;9.30;100.00
21498;DHT22;10910;50.932;0.246;2024-02-21T15:24:41;9.30;100.00
21498;DHT22;10910;50.932;0.246;2024-02-21T15:27:07;9.30;100.00
21498;DHT22;10910;50.932;0.246;2024-02-21T15:29:36;9.30;100.00
21498;DHT22;10910;50.932;0.246;2024-02-21T15:32:02;9.30;100.00
21498;DHT22;10910;50.932;0.246;2024-02-21T15:34:28;9.30;100.00